createdAt,value
2022-10-08T00:00:23.370Z,0
2022-10-08T00:01:24.330Z,0
2022-10-08T00:02:25.635Z,0
2022-10-08T00:03:25.276Z,0
2022-10-08T00:04:26.463Z,0
2022-10-08T00:05:26.495Z,0
2022-10-08T00:06:27.130Z,0
2022-10-08T00:07:29.056Z,0
2022-10-08T00:08:29.260Z,0
2022-10-08T00:09:29.896Z,0
2022-10-08T00:10:29.811Z,0
2022-10-08T00:11:30.428Z,0
2022-10-08T00:12:31.136Z,0
2022-10-08T00:13:31.733Z,0
2022-10-08T00:14:32.450Z,0
2022-10-08T00:15:32.779Z,0
2022-10-08T00:16:33.853Z,0
2022-10-08T00:17:34.185Z,0
2022-10-08T00:18:35.405Z,0
2022-10-08T00:19:35.346Z,0
2022-10-08T00:20:36.269Z,0
2022-10-08T00:21:36.198Z,0
2022-10-08T00:22:37.129Z,0
2022-10-08T00:23:38.321Z,0
2022-10-08T00:24:38.657Z,0
2022-10-08T00:25:38.546Z,0
2022-10-08T00:26:43.475Z,0
2022-10-08T00:27:39.779Z,0
2022-10-08T00:28:40.511Z,0
2022-10-08T00:29:40.538Z,0
2022-10-08T00:30:41.469Z,0
2022-10-08T00:31:42.127Z,0
2022-10-08T00:32:43.185Z,0
2022-10-08T00:33:43.208Z,0
2022-10-08T00:34:43.906Z,0
2022-10-08T00:35:44.850Z,0
2022-10-08T00:36:44.767Z,0
2022-10-08T00:37:44.857Z,0
2022-10-08T00:38:46.771Z,0
2022-10-08T00:39:47.265Z,0
2022-10-08T00:40:47.475Z,0
2022-10-08T00:41:47.665Z,0
2022-10-08T00:42:48.438Z,0
2022-10-08T00:43:48.638Z,0
2022-10-08T00:44:49.375Z,0
2022-10-08T00:45:50.947Z,0
2022-10-08T00:46:51.235Z,0
2022-10-08T00:47:51.428Z,0
2022-10-08T00:48:52.337Z,0
2022-10-08T00:49:52.552Z,0
2022-10-08T00:50:53.793Z,0
2022-10-08T00:51:53.981Z,0
2022-10-08T00:52:55.271Z,0
2022-10-08T00:53:55.175Z,0
2022-10-08T00:54:56.209Z,0
2022-10-08T00:55:56.404Z,0
2022-10-08T00:56:56.596Z,0
2022-10-08T00:57:57.504Z,0
2022-10-08T00:58:58.416Z,0
2022-10-08T00:59:59.051Z,0
2022-10-08T01:01:00.666Z,0
2022-10-08T01:02:00.592Z,0
2022-10-08T01:03:00.694Z,0
2022-10-08T01:04:01.590Z,0
2022-10-08T01:05:02.918Z,0
2022-10-08T01:06:02.916Z,0
2022-10-08T01:07:03.439Z,0
2022-10-08T01:08:03.788Z,0
2022-10-08T01:09:04.984Z,0
2022-10-08T01:10:05.794Z,0
2022-10-08T01:11:06.982Z,0
2022-10-08T01:12:07.900Z,0
2022-10-08T01:13:07.650Z,0
2022-10-08T01:14:08.560Z,0
2022-10-08T01:15:08.825Z,0
2022-10-08T01:16:09.935Z,0
2022-10-08T01:17:09.649Z,0
2022-10-08T01:18:09.704Z,0
2022-10-08T01:19:10.898Z,0
2022-10-08T01:20:10.275Z,0
2022-10-08T01:21:11.498Z,0
2022-10-08T01:22:11.115Z,0
2022-10-08T01:23:11.749Z,0
2022-10-08T01:24:13.249Z,0
2022-10-08T01:25:13.568Z,0
2022-10-08T01:26:14.478Z,0
2022-10-08T01:27:14.667Z,0
2022-10-08T01:28:15.128Z,0
2022-10-08T01:29:15.141Z,0
2022-10-08T01:30:15.048Z,0
2022-10-08T01:31:16.188Z,0
2022-10-08T01:32:16.477Z,0
2022-10-08T01:33:17.369Z,0
2022-10-08T01:34:17.851Z,0
2022-10-08T01:35:17.869Z,0
2022-10-08T01:36:17.813Z,0
2022-10-08T01:37:19.049Z,0
2022-10-08T01:38:19.969Z,0
2022-10-08T01:39:19.879Z,0
2022-10-08T01:40:20.847Z,0
2022-10-08T01:41:20.729Z,0
2022-10-08T01:42:21.644Z,0
2022-10-08T01:43:22.674Z,0
2022-10-08T01:44:23.304Z,0
2022-10-08T01:45:24.174Z,0
2022-10-08T01:46:24.467Z,0
2022-10-08T01:47:25.673Z,0
2022-10-08T01:48:25.612Z,0
2022-10-08T01:49:26.800Z,0
2022-10-08T01:50:27.438Z,0
2022-10-08T01:51:28.669Z,0
2022-10-08T01:52:28.296Z,0
2022-10-08T01:53:29.194Z,0
2022-10-08T01:54:30.366Z,0
2022-10-08T01:55:30.670Z,0
2022-10-08T01:56:31.166Z,0
2022-10-08T01:57:31.785Z,0
2022-10-08T01:58:32.410Z,0
2022-10-08T01:59:33.023Z,0
2022-10-08T02:00:33.937Z,0
2022-10-08T02:01:34.370Z,0
2022-10-08T02:02:35.032Z,0
2022-10-08T02:03:35.351Z,0
2022-10-08T02:04:35.687Z,0
2022-10-08T02:05:36.968Z,0
2022-10-08T02:06:37.886Z,0
2022-10-08T02:07:38.379Z,0
2022-10-08T02:08:38.731Z,0
2022-10-08T02:09:39.367Z,0
2022-10-08T02:10:40.572Z,0
2022-10-08T02:11:40.766Z,0
2022-10-08T02:12:41.372Z,0
2022-10-08T02:13:42.625Z,0
2022-10-08T02:14:42.835Z,0
2022-10-08T02:15:42.833Z,0
2022-10-08T02:16:43.856Z,0
2022-10-08T02:17:44.149Z,0
2022-10-08T02:18:44.061Z,0
2022-10-08T02:19:44.399Z,0
2022-10-08T02:20:46.038Z,0
2022-10-08T02:21:45.976Z,0
2022-10-08T02:22:47.095Z,0
2022-10-08T02:23:47.874Z,0
2022-10-08T02:24:48.491Z,0
2022-10-08T02:25:49.239Z,0
2022-10-08T02:26:49.579Z,0
2022-10-08T02:27:50.520Z,0
2022-10-08T02:28:51.886Z,0
2022-10-08T02:29:51.774Z,0
2022-10-08T02:30:52.667Z,0
2022-10-08T02:31:54.019Z,0
2022-10-08T02:32:54.488Z,0
2022-10-08T02:33:54.810Z,0
2022-10-08T02:34:55.700Z,0
2022-10-08T02:35:55.886Z,0
2022-10-08T02:36:56.223Z,0
2022-10-08T02:37:57.110Z,0
2022-10-08T02:38:57.721Z,0
2022-10-08T02:39:58.916Z,0
2022-10-08T02:40:59.139Z,0
2022-10-08T02:42:00.333Z,0
2022-10-08T02:43:01.270Z,0
2022-10-08T02:44:01.588Z,0
2022-10-08T02:45:02.551Z,0
2022-10-08T02:46:02.742Z,0
2022-10-08T02:47:04.070Z,0
2022-10-08T02:48:04.264Z,0
2022-10-08T02:49:04.185Z,0
2022-10-08T02:50:05.099Z,0
2022-10-08T02:51:06.011Z,0
2022-10-08T02:52:06.244Z,0
2022-10-08T02:53:06.494Z,0
2022-10-08T02:54:07.413Z,0
2022-10-08T02:55:07.323Z,0
2022-10-08T02:56:08.332Z,0
2022-10-08T02:57:14.947Z,0
2022-10-08T02:58:09.161Z,0
2022-10-08T02:59:10.087Z,0
2022-10-08T03:00:10.003Z,0
2022-10-08T03:01:10.159Z,0
2022-10-08T03:02:11.846Z,0
2022-10-08T03:03:12.165Z,0
2022-10-08T03:04:13.361Z,0
2022-10-08T03:05:13.264Z,0
2022-10-08T03:06:14.273Z,0
2022-10-08T03:07:15.791Z,0
2022-10-08T03:08:15.983Z,0
2022-10-08T03:09:17.174Z,0
2022-10-08T03:10:17.373Z,0
2022-10-08T03:11:17.037Z,0
2022-10-08T03:12:18.232Z,0
2022-10-08T03:13:18.846Z,0
2022-10-08T03:14:19.473Z,0
2022-10-08T03:15:20.386Z,0
2022-10-08T03:16:21.260Z,0
2022-10-08T03:17:22.145Z,0
2022-10-08T03:18:22.064Z,0
2022-10-08T03:19:22.700Z,0
2022-10-08T03:20:23.319Z,0
2022-10-08T03:21:24.512Z,0
2022-10-08T03:22:24.460Z,0
2022-10-08T03:23:24.955Z,0
2022-10-08T03:24:24.565Z,0
2022-10-08T03:25:25.475Z,0
2022-10-08T03:26:26.786Z,0
2022-10-08T03:27:26.975Z,0
2022-10-08T03:28:28.518Z,0
2022-10-08T03:29:28.832Z,0
2022-10-08T03:30:29.080Z,0
2022-10-08T03:31:29.441Z,0
2022-10-08T03:32:29.939Z,0
2022-10-08T03:33:30.427Z,0
2022-10-08T03:34:30.784Z,0
2022-10-08T03:35:31.973Z,0
2022-10-08T03:36:32.966Z,0
2022-10-08T03:37:33.479Z,0
2022-10-08T03:38:33.394Z,0
2022-10-08T03:39:34.678Z,0
2022-10-08T03:40:35.592Z,0
2022-10-08T03:41:35.946Z,0
2022-10-08T03:42:37.131Z,0
2022-10-08T03:43:36.751Z,0
2022-10-08T03:44:38.402Z,0
2022-10-08T03:45:38.641Z,0
2022-10-08T03:46:39.140Z,0
2022-10-08T03:47:39.756Z,0
2022-10-08T03:48:40.078Z,0
2022-10-08T03:49:41.274Z,0
2022-10-08T03:50:41.768Z,0
2022-10-08T03:51:41.680Z,0
2022-10-08T03:52:42.656Z,0
2022-10-08T03:53:43.396Z,0
2022-10-08T03:54:44.328Z,0
2022-10-08T03:55:44.514Z,0
2022-10-08T03:56:45.241Z,0
2022-10-08T03:57:45.164Z,0
2022-10-08T03:58:46.104Z,0
2022-10-08T03:59:46.310Z,0
2022-10-08T04:00:46.623Z,0
2022-10-08T04:01:47.560Z,0
2022-10-08T04:02:48.119Z,0
2022-10-08T04:03:48.673Z,0
2022-10-08T04:04:48.884Z,0
2022-10-08T04:05:50.076Z,0
2022-10-08T04:06:50.070Z,0
2022-10-08T04:07:50.301Z,0
2022-10-08T04:08:50.509Z,0
2022-10-08T04:09:51.401Z,0
2022-10-08T04:10:51.626Z,0
2022-10-08T04:11:52.830Z,0
2022-10-08T04:12:53.408Z,0
2022-10-08T04:13:53.900Z,0
2022-10-08T04:14:54.120Z,0
2022-10-08T04:15:54.838Z,0
2022-10-08T04:16:54.710Z,0
2022-10-08T04:17:54.930Z,0
2022-10-08T04:18:55.418Z,0
2022-10-08T04:19:56.328Z,0
2022-10-08T04:20:56.832Z,0
2022-10-08T04:21:56.741Z,0
2022-10-08T04:22:57.802Z,0
2022-10-08T04:23:57.726Z,0
2022-10-08T04:24:58.357Z,0
2022-10-08T04:25:58.706Z,0
2022-10-08T04:26:59.724Z,0
2022-10-08T04:28:00.979Z,0
2022-10-08T04:29:02.143Z,0
2022-10-08T04:30:02.798Z,0
2022-10-08T04:31:02.964Z,0
2022-10-08T04:32:03.413Z,0
2022-10-08T04:33:04.614Z,0
2022-10-08T04:34:04.930Z,0
2022-10-08T04:35:05.864Z,0
2022-10-08T04:36:10.976Z,0
2022-10-08T04:37:07.266Z,0
2022-10-08T04:38:07.904Z,0
2022-10-08T04:39:07.817Z,0
2022-10-08T04:40:08.741Z,0
2022-10-08T04:41:09.377Z,0
2022-10-08T04:42:10.297Z,0
2022-10-08T04:43:10.919Z,0
2022-10-08T04:44:11.831Z,0
2022-10-08T04:45:11.762Z,0
2022-10-08T04:46:12.729Z,0
2022-10-08T04:47:13.076Z,0
2022-10-08T04:48:14.298Z,0
2022-10-08T04:49:14.789Z,0
2022-10-08T04:50:15.008Z,0
2022-10-08T04:51:20.531Z,0
2022-10-08T04:52:15.151Z,0
2022-10-08T04:53:16.090Z,0
2022-10-08T04:54:16.282Z,0
2022-10-08T04:55:16.869Z,0
2022-10-08T04:56:18.084Z,0
2022-10-08T04:57:19.364Z,0
2022-10-08T04:58:19.578Z,0
2022-10-08T04:59:19.198Z,0
2022-10-08T05:00:31.908Z,0
2022-10-08T05:01:20.709Z,0
2022-10-08T05:02:21.722Z,0
2022-10-08T05:03:21.537Z,0
2022-10-08T05:04:22.178Z,0
2022-10-08T05:05:23.372Z,4
2022-10-08T05:06:23.708Z,0
2022-10-08T05:07:24.720Z,0
2022-10-08T05:08:25.656Z,0
2022-10-08T05:09:26.156Z,4
2022-10-08T05:10:26.089Z,0
2022-10-08T05:11:27.003Z,4
2022-10-08T05:12:27.944Z,0
2022-10-08T05:13:28.843Z,4
2022-10-08T05:14:29.456Z,4
2022-10-08T05:15:30.429Z,8
2022-10-08T05:16:31.632Z,8
2022-10-08T05:17:31.635Z,4
2022-10-08T05:18:32.152Z,8
2022-10-08T05:19:32.375Z,8
2022-10-08T05:20:33.031Z,8
2022-10-08T05:21:33.949Z,8
2022-10-08T05:22:34.858Z,12
2022-10-08T05:23:34.493Z,12
2022-10-08T05:24:35.686Z,12
2022-10-08T05:25:35.904Z,16
2022-10-08T05:27:04.783Z,16
2022-10-08T05:27:52.780Z,16
2022-10-08T05:28:54.155Z,24
2022-10-08T05:29:54.079Z,24
2022-10-08T05:30:55.171Z,28
2022-10-08T05:31:55.232Z,32
2022-10-08T05:32:56.397Z,32
2022-10-08T05:33:56.301Z,36
2022-10-08T05:34:57.222Z,40
2022-10-08T05:35:58.435Z,44
2022-10-08T05:36:58.076Z,48
2022-10-08T05:37:59.646Z,52
2022-10-08T05:39:00.022Z,60
2022-10-08T05:40:00.912Z,64
2022-10-08T05:41:01.232Z,64
2022-10-08T05:42:01.555Z,72
2022-10-08T05:43:02.181Z,76
2022-10-08T05:44:03.097Z,80
2022-10-08T05:45:03.710Z,84
2022-10-08T05:46:04.491Z,96
2022-10-08T05:47:05.456Z,104
2022-10-08T05:48:04.899Z,108
2022-10-08T05:49:06.102Z,120
2022-10-08T05:50:07.040Z,128
2022-10-08T05:51:06.957Z,140
2022-10-08T05:52:07.880Z,148
2022-10-08T05:53:14.860Z,164
2022-10-08T05:54:09.246Z,172
2022-10-08T05:55:10.167Z,184
2022-10-08T05:56:11.380Z,200
2022-10-08T05:57:11.581Z,216
2022-10-08T05:58:11.606Z,228
2022-10-08T05:59:11.524Z,244
2022-10-08T06:00:12.443Z,248
2022-10-08T06:01:12.663Z,260
2022-10-08T06:02:13.586Z,272
2022-10-08T06:03:13.960Z,292
2022-10-08T06:04:19.956Z,312
2022-10-08T06:05:15.672Z,312
2022-10-08T06:06:16.878Z,308
2022-10-08T06:07:17.794Z,304
2022-10-08T06:08:18.531Z,292
2022-10-08T06:09:19.786Z,296
2022-10-08T06:10:20.277Z,300
2022-10-08T06:11:21.196Z,308
2022-10-08T06:12:21.392Z,304
2022-10-08T06:13:22.023Z,296
2022-10-08T06:14:22.943Z,284
2022-10-08T06:15:24.167Z,308
2022-10-08T06:16:24.599Z,292
2022-10-08T06:17:24.679Z,296
2022-10-08T06:18:25.402Z,296
2022-10-08T06:19:25.620Z,296
2022-10-08T06:20:28.526Z,308
2022-10-08T06:21:26.233Z,332
2022-10-08T06:22:27.126Z,356
2022-10-08T06:23:28.045Z,380
2022-10-08T06:24:28.577Z,372
2022-10-08T06:25:28.473Z,376
2022-10-08T06:26:33.020Z,344
2022-10-08T06:27:29.270Z,300
2022-10-08T06:28:29.785Z,288
2022-10-08T06:29:29.484Z,276
2022-10-08T06:30:30.719Z,264
2022-10-08T06:31:30.877Z,248
2022-10-08T06:32:31.611Z,228
2022-10-08T06:33:32.205Z,236
2022-10-08T06:34:33.112Z,240
2022-10-08T06:35:33.435Z,228
2022-10-08T06:36:34.342Z,224
2022-10-08T06:37:35.234Z,204
2022-10-08T06:38:35.532Z,184
2022-10-08T06:39:36.759Z,176
2022-10-08T06:40:37.199Z,192
2022-10-08T06:41:37.393Z,208
2022-10-08T06:42:38.031Z,224
2022-10-08T06:43:38.989Z,236
2022-10-08T06:44:39.600Z,248
2022-10-08T06:45:40.799Z,272
2022-10-08T06:46:41.414Z,308
2022-10-08T06:47:41.398Z,336
2022-10-08T06:48:42.700Z,364
2022-10-08T06:49:43.224Z,348
2022-10-08T06:50:42.839Z,308
2022-10-08T06:51:44.033Z,296
2022-10-08T06:52:44.472Z,304
2022-10-08T06:53:44.691Z,304
2022-10-08T06:54:45.634Z,312
2022-10-08T06:55:47.135Z,308
2022-10-08T06:56:47.694Z,296
2022-10-08T06:57:47.620Z,284
2022-10-08T06:58:48.362Z,268
2022-10-08T06:59:49.004Z,224
2022-10-08T07:00:48.736Z,212
2022-10-08T07:01:50.108Z,228
2022-10-08T07:02:50.927Z,248
2022-10-08T07:03:49.842Z,272
2022-10-08T07:04:50.449Z,288
2022-10-08T07:05:51.070Z,288
2022-10-08T07:06:52.260Z,312
2022-10-08T07:07:52.896Z,340
2022-10-08T07:08:53.040Z,360
2022-10-08T07:09:53.683Z,348
2022-10-08T07:10:54.306Z,336
2022-10-08T07:11:55.801Z,332
2022-10-08T07:12:56.695Z,340
2022-10-08T07:13:57.219Z,344
2022-10-08T07:14:56.562Z,324
2022-10-08T07:15:58.376Z,316
2022-10-08T07:16:58.377Z,276
2022-10-08T07:17:59.943Z,228
2022-10-08T07:18:59.642Z,200
2022-10-08T07:20:00.859Z,180
2022-10-08T07:21:02.075Z,168
2022-10-08T07:22:06.865Z,160
2022-10-08T07:23:02.760Z,160
2022-10-08T07:24:03.974Z,168
2022-10-08T07:25:03.959Z,172
2022-10-08T07:26:03.878Z,180
2022-10-08T07:27:05.097Z,188
2022-10-08T07:28:05.480Z,184
2022-10-08T07:29:06.184Z,184
2022-10-08T07:30:06.102Z,180
2022-10-08T07:31:06.750Z,192
2022-10-08T07:32:07.746Z,204
2022-10-08T07:33:08.683Z,232
2022-10-08T07:34:08.895Z,248
2022-10-08T07:35:11.304Z,268
2022-10-08T07:36:09.956Z,292
2022-10-08T07:37:10.195Z,324
2022-10-08T07:38:11.091Z,344
2022-10-08T07:39:11.812Z,364
2022-10-08T07:40:12.330Z,372
2022-10-08T07:41:12.263Z,388
2022-10-08T07:42:13.459Z,392
2022-10-08T07:43:16.554Z,408
2022-10-08T07:44:14.130Z,432
2022-10-08T07:45:15.081Z,472
2022-10-08T07:46:16.639Z,508
2022-10-08T07:47:16.875Z,540
2022-10-08T07:48:17.202Z,584
2022-10-08T07:49:17.498Z,632
2022-10-08T07:50:17.698Z,684
2022-10-08T07:51:18.031Z,720
2022-10-08T07:52:18.934Z,680
2022-10-08T07:53:20.130Z,636
2022-10-08T07:54:21.041Z,664
2022-10-08T07:55:21.970Z,704
2022-10-08T07:56:22.468Z,760
2022-10-08T07:57:21.791Z,840
2022-10-08T07:58:23.136Z,904
2022-10-08T08:00:31.566Z,900
2022-10-08T08:01:24.823Z,908
2022-10-08T08:02:25.602Z,952
2022-10-08T08:03:25.643Z,944
2022-10-08T08:04:26.833Z,896
2022-10-08T08:05:27.334Z,1004
2022-10-08T08:06:27.524Z,1100
2022-10-08T08:08:28.844Z,1032
2022-10-08T08:09:29.860Z,1016
2022-10-08T08:10:29.941Z,1060
2022-10-08T08:11:31.142Z,1084
2022-10-08T08:12:31.342Z,1116
2022-10-08T08:13:35.907Z,1196
2022-10-08T08:14:32.732Z,1316
2022-10-08T08:15:32.631Z,1420
2022-10-08T08:16:33.464Z,1380
2022-10-08T08:17:33.183Z,1324
2022-10-08T08:18:33.827Z,1340
2022-10-08T08:19:34.536Z,1420
2022-10-08T08:20:35.835Z,1596
2022-10-08T08:21:36.040Z,1736
2022-10-08T08:22:37.251Z,1772
2022-10-08T08:23:37.150Z,1824
2022-10-08T08:24:38.369Z,1724
2022-10-08T08:25:38.040Z,1572
2022-10-08T08:26:39.292Z,1480
2022-10-08T08:27:39.211Z,1524
2022-10-08T08:28:40.468Z,1472
2022-10-08T08:29:40.403Z,1456
2022-10-08T08:30:40.998Z,1452
2022-10-08T08:31:42.763Z,1456
2022-10-08T08:32:42.891Z,1492
2022-10-08T08:33:43.132Z,1592
2022-10-08T08:34:44.060Z,1768
2022-10-08T08:35:45.274Z,2236
2022-10-08T08:36:45.903Z,2112
2022-10-08T08:37:47.124Z,2236
2022-10-08T08:38:46.739Z,2360
2022-10-08T08:39:46.881Z,1876
2022-10-08T08:40:47.575Z,1696
2022-10-08T08:41:48.769Z,1640
2022-10-08T08:42:50.309Z,1576
2022-10-08T08:43:50.242Z,1568
2022-10-08T08:44:51.471Z,1600
2022-10-08T08:45:59.244Z,1588
2022-10-08T08:46:52.293Z,1604
2022-10-08T08:47:53.305Z,1692
2022-10-08T08:48:53.961Z,1840
2022-10-08T08:49:55.283Z,1984
2022-10-08T08:51:00.007Z,1948
2022-10-08T08:51:55.656Z,1880
2022-10-08T08:52:56.691Z,1788
2022-10-08T08:53:57.032Z,1700
2022-10-08T08:54:57.380Z,1700
2022-10-08T08:55:58.635Z,1788
2022-10-08T08:56:58.858Z,1920
2022-10-08T08:57:58.757Z,2052
2022-10-08T08:58:59.011Z,2096
2022-10-08T09:00:00.221Z,2052
2022-10-08T09:01:01.357Z,2000
2022-10-08T09:02:01.040Z,1984
2022-10-08T09:03:02.533Z,1880
2022-10-08T09:04:02.765Z,1868
2022-10-08T09:05:03.861Z,1844
2022-10-08T09:06:03.882Z,2004
2022-10-08T09:07:04.798Z,1872
2022-10-08T09:08:05.118Z,1780
2022-10-08T09:09:05.740Z,1760
2022-10-08T09:10:06.559Z,1684
2022-10-08T09:11:06.947Z,1724
2022-10-08T09:12:07.863Z,1768
2022-10-08T09:13:08.975Z,1692
2022-10-08T09:14:09.173Z,1612
2022-10-08T09:15:10.430Z,1456
2022-10-08T09:16:10.371Z,1440
2022-10-08T09:17:11.386Z,1228
2022-10-08T09:18:12.012Z,1128
2022-10-08T09:19:13.221Z,1096
2022-10-08T09:20:14.255Z,1120
2022-10-08T09:21:14.776Z,1116
2022-10-08T09:22:14.438Z,1136
2022-10-08T09:23:15.044Z,1172
2022-10-08T09:24:15.948Z,1244
2022-10-08T09:25:16.281Z,1304
2022-10-08T09:26:17.240Z,1396
2022-10-08T09:27:17.460Z,1568
2022-10-08T09:28:18.067Z,1696
2022-10-08T09:29:18.633Z,1736
2022-10-08T09:30:19.253Z,1732
2022-10-08T09:31:20.851Z,1748
2022-10-08T09:32:19.673Z,1700
2022-10-08T09:33:20.501Z,1628
2022-10-08T09:34:21.420Z,1640
2022-10-08T09:35:21.626Z,1664
2022-10-08T09:36:21.537Z,1880
2022-10-08T09:37:22.141Z,1876
2022-10-08T09:38:23.341Z,1888
2022-10-08T09:39:23.560Z,1612
2022-10-08T09:40:24.025Z,1736
2022-10-08T09:41:24.396Z,1784
2022-10-08T09:42:25.615Z,1908
2022-10-08T09:43:26.558Z,1976
2022-10-08T09:44:27.478Z,2316
2022-10-08T09:45:33.194Z,2456
2022-10-08T09:46:28.726Z,2520
2022-10-08T09:47:28.825Z,2456
2022-10-08T09:48:29.874Z,2476
2022-10-08T09:49:30.828Z,2516
2022-10-08T09:50:32.100Z,3072
2022-10-08T09:51:32.008Z,3096
2022-10-08T09:52:31.919Z,2684
2022-10-08T09:53:33.139Z,3056
2022-10-08T09:54:33.783Z,2260
2022-10-08T09:55:34.414Z,1744
2022-10-08T09:56:35.362Z,1648
2022-10-08T09:57:38.445Z,1644
2022-10-08T09:58:37.351Z,1524
2022-10-08T09:59:37.858Z,1480
2022-10-08T10:00:38.899Z,1468
2022-10-08T10:01:39.115Z,1476
2022-10-08T10:02:39.744Z,1596
2022-10-08T10:03:40.676Z,1868
2022-10-08T10:04:40.703Z,3848
2022-10-08T10:05:41.631Z,7408
2022-10-08T10:06:41.865Z,11488
2022-10-08T10:07:42.063Z,10204
2022-10-08T10:08:42.399Z,4128
2022-10-08T10:09:42.730Z,1836
2022-10-08T10:10:42.958Z,1484
2022-10-08T10:11:43.902Z,1292
2022-10-08T10:12:44.148Z,1224
2022-10-08T10:13:44.731Z,1256
2022-10-08T10:14:45.079Z,1248
2022-10-08T10:15:46.289Z,1212
2022-10-08T10:16:46.832Z,1184
2022-10-08T10:17:47.125Z,1156
2022-10-08T10:18:47.624Z,1120
2022-10-08T10:19:47.841Z,1060
2022-10-08T10:20:48.889Z,1004
2022-10-08T10:21:49.851Z,964
2022-10-08T10:22:50.962Z,908
2022-10-08T10:23:51.011Z,864
2022-10-08T10:24:51.645Z,844
2022-10-08T10:25:55.252Z,824
2022-10-08T10:26:53.874Z,800
2022-10-08T10:27:53.798Z,752
2022-10-08T10:28:55.146Z,712
2022-10-08T10:29:56.071Z,712
2022-10-08T10:30:57.356Z,708
2022-10-08T10:31:57.673Z,692
2022-10-08T10:32:58.195Z,672
2022-10-08T10:33:58.100Z,676
2022-10-08T10:34:59.051Z,700
2022-10-08T10:35:59.970Z,732
2022-10-08T10:37:00.943Z,780
2022-10-08T10:38:01.561Z,820
2022-10-08T10:39:02.756Z,864
2022-10-08T10:40:03.079Z,920
2022-10-08T10:41:02.796Z,968
2022-10-08T10:42:03.443Z,1012
2022-10-08T10:43:03.362Z,1048
2022-10-08T10:44:04.008Z,1072
2022-10-08T10:45:05.211Z,1084
2022-10-08T10:46:05.526Z,1084
2022-10-08T10:47:06.773Z,1084
2022-10-08T10:48:07.718Z,1096
2022-10-08T10:49:07.920Z,1132
2022-10-08T10:50:08.841Z,1128
2022-10-08T10:51:09.879Z,1100
2022-10-08T10:52:10.090Z,1048
2022-10-08T10:53:11.286Z,1012
2022-10-08T10:54:11.190Z,1000
2022-10-08T10:55:11.851Z,968
2022-10-08T10:56:13.333Z,900
2022-10-08T10:57:13.554Z,816
2022-10-08T10:58:13.483Z,740
2022-10-08T10:59:14.987Z,672
2022-10-08T11:00:15.186Z,624
2022-10-08T11:01:15.411Z,588
2022-10-08T11:02:15.641Z,544
2022-10-08T11:03:16.908Z,500
2022-10-08T11:04:17.554Z,468
2022-10-08T11:05:18.204Z,432
2022-10-08T11:06:19.146Z,400
2022-10-08T11:07:19.777Z,372
2022-10-08T11:08:20.716Z,352
2022-10-08T11:09:21.636Z,332
2022-10-08T11:10:22.010Z,324
2022-10-08T11:11:23.037Z,320
2022-10-08T11:12:23.584Z,316
2022-10-08T11:13:24.500Z,312
2022-10-08T11:14:25.450Z,324
2022-10-08T11:15:25.354Z,340
2022-10-08T11:16:27.106Z,348
2022-10-08T11:17:31.023Z,344
2022-10-08T11:18:27.227Z,344
2022-10-08T11:19:27.565Z,348
2022-10-08T11:20:28.196Z,360
2022-10-08T11:21:28.385Z,380
2022-10-08T11:22:29.590Z,412
2022-10-08T11:23:30.215Z,448
2022-10-08T11:24:30.843Z,488
2022-10-08T11:25:40.342Z,524
2022-10-08T11:26:34.355Z,548
2022-10-08T11:27:32.571Z,576
2022-10-08T11:28:33.382Z,624
2022-10-08T11:29:32.843Z,668
2022-10-08T11:30:34.058Z,704
2022-10-08T11:31:35.712Z,760
2022-10-08T11:32:35.931Z,812
2022-10-08T11:33:35.882Z,812
2022-10-08T11:34:36.532Z,772
2022-10-08T11:35:37.444Z,752
2022-10-08T11:36:44.034Z,736
2022-10-08T11:37:37.969Z,724
2022-10-08T11:38:38.627Z,700
2022-10-08T11:39:39.250Z,668
2022-10-08T11:40:40.757Z,648
2022-10-08T11:41:40.800Z,648
2022-10-08T11:42:53.148Z,632
2022-10-08T11:43:41.967Z,620
2022-10-08T11:44:43.291Z,632
2022-10-08T11:45:44.489Z,644
2022-10-08T11:46:45.390Z,624
2022-10-08T11:47:44.739Z,624
2022-10-08T11:48:46.247Z,624
2022-10-08T11:49:45.995Z,592
2022-10-08T11:50:46.749Z,568
2022-10-08T11:51:47.488Z,548
2022-10-08T11:52:48.808Z,524
2022-10-08T11:53:48.724Z,504
2022-10-08T11:54:52.962Z,488
2022-10-08T11:55:49.999Z,468
2022-10-08T11:56:49.912Z,464
2022-10-08T11:58:18.051Z,488
2022-10-08T11:58:51.272Z,488
2022-10-08T11:59:51.506Z,484
2022-10-08T12:00:52.046Z,476
2022-10-08T12:01:52.396Z,456
2022-10-08T12:02:53.741Z,432
2022-10-08T12:03:54.770Z,404
2022-10-08T12:04:54.999Z,384
2022-10-08T12:06:00.281Z,368
2022-10-08T12:06:55.622Z,352
2022-10-08T12:07:56.253Z,332
2022-10-08T12:08:56.889Z,316
2022-10-08T12:09:57.508Z,304
2022-10-08T12:10:58.705Z,292
2022-10-08T12:11:59.732Z,280
2022-10-08T12:13:00.558Z,280
2022-10-08T12:14:00.480Z,284
2022-10-08T12:15:01.678Z,288
2022-10-08T12:16:03.340Z,288
2022-10-08T12:17:03.614Z,288
2022-10-08T12:18:04.837Z,284
2022-10-08T12:19:04.190Z,280
2022-10-08T12:20:05.424Z,276
2022-10-08T12:21:05.334Z,268
2022-10-08T12:22:06.062Z,268
2022-10-08T12:23:06.707Z,268
2022-10-08T12:24:06.622Z,260
2022-10-08T12:25:07.840Z,260
2022-10-08T12:26:08.070Z,260
2022-10-08T12:27:08.417Z,256
2022-10-08T12:28:09.538Z,252
2022-10-08T12:29:09.544Z,252
2022-10-08T12:30:10.081Z,252
2022-10-08T12:31:10.243Z,256
2022-10-08T12:32:11.289Z,252
2022-10-08T12:33:11.493Z,244
2022-10-08T12:34:11.117Z,244
2022-10-08T12:35:12.620Z,244
2022-10-08T12:36:13.319Z,240
2022-10-08T12:37:16.508Z,236
2022-10-08T12:38:14.853Z,236
2022-10-08T12:39:14.753Z,236
2022-10-08T12:40:15.260Z,240
2022-10-08T12:41:15.463Z,240
2022-10-08T12:42:16.046Z,240
2022-10-08T12:43:15.668Z,232
2022-10-08T12:44:16.610Z,228
2022-10-08T12:45:16.501Z,220
2022-10-08T12:46:17.346Z,212
2022-10-08T12:47:18.505Z,208
2022-10-08T12:48:18.707Z,216
2022-10-08T12:49:19.627Z,220
2022-10-08T12:50:19.530Z,228
2022-10-08T12:51:20.171Z,232
2022-10-08T12:52:21.498Z,232
2022-10-08T12:53:22.129Z,236
2022-10-08T12:54:22.777Z,236
2022-10-08T12:55:23.408Z,240
2022-10-08T12:56:24.051Z,244
2022-10-08T12:57:24.403Z,244
2022-10-08T12:58:25.606Z,244
2022-10-08T12:59:26.527Z,244
2022-10-08T13:00:27.053Z,252
2022-10-08T13:01:27.739Z,264
2022-10-08T13:02:27.707Z,272
2022-10-08T13:03:27.321Z,276
2022-10-08T13:04:28.833Z,284
2022-10-08T13:05:28.769Z,280
2022-10-08T13:06:33.121Z,280
2022-10-08T13:07:29.730Z,284
2022-10-08T13:08:30.238Z,292
2022-10-08T13:09:29.840Z,308
2022-10-08T13:10:30.462Z,324
2022-10-08T13:11:31.696Z,336
2022-10-08T13:12:32.724Z,352
2022-10-08T13:13:33.340Z,364
2022-10-08T13:14:34.315Z,372
2022-10-08T13:15:33.937Z,384
2022-10-08T13:16:35.365Z,392
2022-10-08T13:17:35.577Z,408
2022-10-08T13:18:35.494Z,440
2022-10-08T13:19:36.111Z,464
2022-10-08T13:20:37.028Z,492
2022-10-08T13:21:37.275Z,516
2022-10-08T13:22:37.321Z,552
2022-10-08T13:23:38.533Z,604
2022-10-08T13:24:39.465Z,628
2022-10-08T13:25:39.383Z,620
2022-10-08T13:26:40.004Z,616
2022-10-08T13:27:40.345Z,608
2022-10-08T13:29:14.000Z,568
2022-10-08T13:29:41.602Z,548
2022-10-08T13:30:41.831Z,516
2022-10-08T13:31:42.335Z,488
2022-10-08T13:32:42.457Z,468
2022-10-08T13:33:43.103Z,444
2022-10-08T13:34:44.032Z,416
2022-10-08T13:35:44.375Z,388
2022-10-08T13:36:48.769Z,368
2022-10-08T13:37:45.666Z,348
2022-10-08T13:38:47.247Z,328
2022-10-08T13:39:47.530Z,320
2022-10-08T13:40:48.753Z,316
2022-10-08T13:41:52.228Z,316
2022-10-08T13:42:49.401Z,308
2022-10-08T13:43:49.302Z,296
2022-10-08T13:44:50.245Z,288
2022-10-08T13:45:50.495Z,296
2022-10-08T13:46:51.454Z,308
2022-10-08T13:47:53.208Z,320
2022-10-08T13:48:52.421Z,328
2022-10-08T13:49:52.631Z,324
2022-10-08T13:50:53.352Z,308
2022-10-08T13:51:54.560Z,292
2022-10-08T13:52:55.594Z,272
2022-10-08T13:54:02.675Z,256
2022-10-08T13:54:57.319Z,252
2022-10-08T13:55:58.532Z,248
2022-10-08T13:56:58.753Z,244
2022-10-08T13:57:59.858Z,244
2022-10-08T13:59:00.062Z,244
2022-10-08T14:00:00.429Z,248
2022-10-08T14:01:01.740Z,252
2022-10-08T14:02:02.084Z,256
2022-10-08T14:03:02.212Z,256
2022-10-08T14:04:03.153Z,264
2022-10-08T14:05:03.776Z,268
2022-10-08T14:06:04.693Z,272
2022-10-08T14:07:05.350Z,280
2022-10-08T14:08:05.974Z,284
2022-10-08T14:09:06.889Z,280
2022-10-08T14:10:08.170Z,284
2022-10-08T14:11:09.214Z,284
2022-10-08T14:12:09.130Z,280
2022-10-08T14:13:09.864Z,272
2022-10-08T14:14:11.085Z,272